createdAt,value
2019-02-04T00:00:48.756Z,1.20
2019-02-04T00:03:20.864Z,1.20
2019-02-04T00:05:49.666Z,1.20
2019-02-04T00:08:18.378Z,1.20
2019-02-04T00:10:47.406Z,1.20
2019-02-04T00:13:16.421Z,1.20
2019-02-04T00:15:45.317Z,1.20
2019-02-04T00:18:14.153Z,1.20
2019-02-04T00:20:42.781Z,1.20
2019-02-04T00:23:11.576Z,1.20
2019-02-04T00:25:40.806Z,1.20
2019-02-04T00:28:09.710Z,1.20
2019-02-04T00:30:38.491Z,1.20
2019-02-04T00:33:07.336Z,1.20
2019-02-04T00:35:36.210Z,1.20
2019-02-04T00:38:04.984Z,1.20
2019-02-04T00:40:34.224Z,1.20
2019-02-04T00:43:03.087Z,1.20
2019-02-04T00:45:32.006Z,1.20
2019-02-04T00:48:00.658Z,1.20
2019-02-04T00:50:29.537Z,1.20
2019-02-04T00:52:58.428Z,1.20
2019-02-04T00:55:27.483Z,1.20
2019-02-04T00:57:56.485Z,1.20
2019-02-04T01:00:28.376Z,1.20
2019-02-04T01:02:57.229Z,1.20
2019-02-04T01:05:25.981Z,1.20
2019-02-04T01:07:55.333Z,1.20
2019-02-04T01:10:28.763Z,1.20
2019-02-04T01:12:58.652Z,1.20
2019-02-04T01:15:27.463Z,1.20
2019-02-04T01:17:56.407Z,1.20
2019-02-04T01:20:29.843Z,1.10
2019-02-04T01:22:59.576Z,1.10
2019-02-04T01:25:28.439Z,1.20
2019-02-04T01:27:57.282Z,1.20
2019-02-04T01:30:26.434Z,1.10
2019-02-04T01:32:55.283Z,1.10
2019-02-04T01:35:24.005Z,1.10
2019-02-04T01:37:52.799Z,1.10
2019-02-04T01:40:24.200Z,1.20
2019-02-04T01:42:53.480Z,1.10
2019-02-04T01:45:22.855Z,1.10
2019-02-04T01:47:51.627Z,1.10
2019-02-04T01:50:22.196Z,1.10
2019-02-04T01:52:50.943Z,1.10
2019-02-04T01:55:19.675Z,1.10
2019-02-04T01:57:53.045Z,1.20
2019-02-04T02:00:24.683Z,1.10
2019-02-04T02:02:53.883Z,1.20
2019-02-04T02:05:22.697Z,1.10
2019-02-04T02:07:51.757Z,1.20
2019-02-04T02:10:22.992Z,1.20
2019-02-04T02:12:52.071Z,1.10
2019-02-04T02:15:21.287Z,1.10
2019-02-04T02:17:50.623Z,1.10
2019-02-04T02:20:22.438Z,1.20
2019-02-04T02:22:51.110Z,1.10
2019-02-04T02:25:19.920Z,1.10
2019-02-04T02:27:48.650Z,1.10
2019-02-04T02:30:20.373Z,1.10
2019-02-04T02:32:49.121Z,1.10
2019-02-04T02:35:17.948Z,1.10
2019-02-04T02:37:46.767Z,1.20
2019-02-04T02:40:27.509Z,1.10
2019-02-04T02:42:56.620Z,1.10
2019-02-04T02:45:25.359Z,1.20
2019-02-04T02:47:54.259Z,1.20
2019-02-04T02:50:23.188Z,1.10
2019-02-04T02:52:52.006Z,1.20
2019-02-04T02:55:20.809Z,1.20
2019-02-04T02:57:49.564Z,1.20
2019-02-04T03:00:26.584Z,1.20
2019-02-04T03:02:55.776Z,1.20
2019-02-04T03:05:24.596Z,1.20
2019-02-04T03:07:53.506Z,1.10
2019-02-04T03:10:24.852Z,1.10
2019-02-04T03:12:54.096Z,1.20
2019-02-04T03:15:23.063Z,1.10
2019-02-04T03:17:52.585Z,1.10
2019-02-04T03:20:21.833Z,1.10
2019-02-04T03:22:50.696Z,1.10
2019-02-04T03:25:19.629Z,1.10
2019-02-04T03:27:48.442Z,1.10
2019-02-04T03:30:20.229Z,1.10
2019-02-04T03:32:49.316Z,1.20
2019-02-04T03:35:18.200Z,1.10
2019-02-04T03:37:46.979Z,1.10
2019-02-04T03:40:25.341Z,1.10
2019-02-04T03:42:54.229Z,1.10
2019-02-04T03:45:22.941Z,1.10
2019-02-04T03:48:03.693Z,1.10
2019-02-04T03:50:22.883Z,1.10
2019-02-04T03:52:52.651Z,1.10
2019-02-04T03:55:21.548Z,1.10
2019-02-04T03:57:50.426Z,1.10
2019-02-04T04:00:28.207Z,1.10
2019-02-04T04:02:57.050Z,1.10
2019-02-04T04:05:26.159Z,1.10
2019-02-04T04:07:54.982Z,1.10
2019-02-04T04:10:24.029Z,1.10
2019-02-04T04:12:52.915Z,1.10
2019-02-04T04:15:21.934Z,1.10
2019-02-04T04:17:50.792Z,1.20
2019-02-04T04:20:20.749Z,1.10
2019-02-04T04:22:49.617Z,1.10
2019-02-04T04:25:18.938Z,1.10
2019-02-04T04:27:48.302Z,1.10
2019-02-04T04:30:19.709Z,1.10
2019-02-04T04:32:48.770Z,1.10
2019-02-04T04:35:17.911Z,1.10
2019-02-04T04:37:46.711Z,1.10
2019-02-04T04:40:16.584Z,1.10
2019-02-04T04:42:45.614Z,1.10
2019-02-04T04:45:19.529Z,1.10
2019-02-04T04:47:48.784Z,1.00
2019-02-04T04:50:17.537Z,1.10
2019-02-04T04:52:46.467Z,1.00
2019-02-04T04:55:18.465Z,1.00
2019-02-04T04:57:47.229Z,1.00
2019-02-04T05:00:21.358Z,1.00
2019-02-04T05:02:50.068Z,1.00
2019-02-04T05:05:18.975Z,1.00
2019-02-04T05:07:47.878Z,1.00
2019-02-04T05:10:18.787Z,1.00
2019-02-04T05:12:47.827Z,1.00
2019-02-04T05:15:23.564Z,1.10
2019-02-04T05:17:52.908Z,1.10
2019-02-04T05:20:22.666Z,1.10
2019-02-04T05:22:51.737Z,1.10
2019-02-04T05:25:20.617Z,1.10
2019-02-04T05:27:49.558Z,1.10
2019-02-04T05:30:20.177Z,1.00
2019-02-04T05:32:48.995Z,1.10
2019-02-04T05:35:17.830Z,1.00
2019-02-04T05:37:47.640Z,1.10
2019-02-04T05:40:17.696Z,1.00
2019-02-04T05:42:47.142Z,1.00
2019-02-04T05:45:20.667Z,1.10
2019-02-04T05:47:49.544Z,1.10
2019-02-04T05:50:19.826Z,1.10
2019-02-04T05:52:49.832Z,1.00
2019-02-04T05:55:21.093Z,1.00
2019-02-04T05:57:49.915Z,1.00
2019-02-04T06:00:34.515Z,1.10
2019-02-04T06:03:03.348Z,1.10
2019-02-04T06:05:32.198Z,1.10
2019-02-04T06:08:01.416Z,1.10
2019-02-04T06:10:30.090Z,1.10
2019-02-04T06:12:58.870Z,1.10
2019-02-04T06:15:27.861Z,1.10
2019-02-04T06:17:57.088Z,1.00
2019-02-04T06:20:26.631Z,1.00
2019-02-04T06:22:56.375Z,1.00
2019-02-04T06:25:25.215Z,1.00
2019-02-04T06:27:54.017Z,1.00
2019-02-04T06:30:22.841Z,1.00
2019-02-04T06:32:51.714Z,1.00
2019-02-04T06:35:20.616Z,1.00
2019-02-04T06:37:49.838Z,1.00
2019-02-04T06:40:18.810Z,1.10
2019-02-04T06:42:47.702Z,1.10
2019-02-04T06:45:17.734Z,1.10
2019-02-04T06:47:46.724Z,1.10
2019-02-04T06:50:20.597Z,1.10
2019-02-04T06:52:49.919Z,1.10
2019-02-04T06:55:27.611Z,1.10
2019-02-04T06:57:56.319Z,1.10
2019-02-04T07:00:25.169Z,1.10
2019-02-04T07:02:54.009Z,1.20
2019-02-04T07:05:22.846Z,1.20
2019-02-04T07:07:51.678Z,1.20
2019-02-04T07:10:27.822Z,1.30
2019-02-04T07:12:56.654Z,1.30
2019-02-04T07:15:25.538Z,1.30
2019-02-04T07:18:01.320Z,1.30
2019-02-04T07:20:27.541Z,1.40
2019-02-04T07:22:56.342Z,1.40
2019-02-04T07:25:25.585Z,1.50
2019-02-04T07:27:54.493Z,1.50
2019-02-04T07:30:27.836Z,1.50
2019-02-04T07:32:57.203Z,1.50
2019-02-04T07:35:26.051Z,1.50
2019-02-04T07:37:54.871Z,1.50
2019-02-04T07:40:34.347Z,1.50
2019-02-04T07:43:03.353Z,1.50
2019-02-04T07:45:32.508Z,1.50
2019-02-04T07:48:01.544Z,1.50
2019-02-04T07:50:30.225Z,1.60
2019-02-04T07:52:58.954Z,1.50
2019-02-04T07:55:27.835Z,1.60
2019-02-04T07:57:57.308Z,1.60
2019-02-04T08:00:34.258Z,1.60
2019-02-04T08:03:03.121Z,1.60
2019-02-04T08:05:31.939Z,1.60
2019-02-04T08:08:00.952Z,1.60
2019-02-04T08:10:29.777Z,1.60
2019-02-04T08:13:01.582Z,1.60
2019-02-04T08:15:37.010Z,1.70
2019-02-04T08:18:07.067Z,1.70
2019-02-04T08:20:35.931Z,1.80
2019-02-04T08:23:04.927Z,1.80
2019-02-04T08:25:33.878Z,1.80
2019-02-04T08:28:02.820Z,1.80
2019-02-04T08:30:37.739Z,1.90
2019-02-04T08:33:05.118Z,1.90
2019-02-04T08:35:33.982Z,2.00
2019-02-04T08:38:02.914Z,2.10
2019-02-04T08:40:31.626Z,2.20
2019-02-04T08:43:00.388Z,2.30
2019-02-04T08:45:29.288Z,2.40
2019-02-04T08:47:58.211Z,2.40
2019-02-04T08:50:28.285Z,2.40
2019-02-04T08:52:57.256Z,2.60
2019-02-04T08:55:26.133Z,2.70
2019-02-04T08:57:55.450Z,2.80
2019-02-04T09:00:25.703Z,3.00
2019-02-04T09:02:54.523Z,3.10
2019-02-04T09:05:24.218Z,3.30
2019-02-04T09:07:53.170Z,3.50
2019-02-04T09:10:27.762Z,3.60
2019-02-04T09:12:56.572Z,3.80
2019-02-04T09:15:25.406Z,3.90
2019-02-04T09:17:54.276Z,4.00
2019-02-04T09:20:23.032Z,4.20
2019-02-04T09:22:51.867Z,4.30
2019-02-04T09:25:23.229Z,4.30
2019-02-04T09:27:52.433Z,4.40
2019-02-04T09:30:23.233Z,4.30
2019-02-04T09:32:52.649Z,4.30
2019-02-04T09:35:22.683Z,4.40
2019-02-04T09:37:51.625Z,4.40
2019-02-04T09:40:26.327Z,4.50
2019-02-04T09:42:55.136Z,4.50
2019-02-04T09:45:27.347Z,4.80
2019-02-04T09:47:54.362Z,5.00
2019-02-04T09:50:32.638Z,5.30
2019-02-04T09:53:01.593Z,5.50
2019-02-04T09:55:38.979Z,5.70
2019-02-04T09:58:07.959Z,5.70
2019-02-04T10:00:37.504Z,6.00
2019-02-04T10:03:07.324Z,6.30
2019-02-04T10:05:36.777Z,6.30
2019-02-04T10:08:07.314Z,6.40
2019-02-04T10:10:36.247Z,6.70
2019-02-04T10:13:05.893Z,6.80
2019-02-04T10:15:40.307Z,6.90
2019-02-04T10:18:10.282Z,6.80
2019-02-04T10:20:39.494Z,6.80
2019-02-04T10:23:09.439Z,6.70
2019-02-04T10:25:43.656Z,6.60
2019-02-04T10:28:14.297Z,6.60
2019-02-04T10:30:43.544Z,6.50
2019-02-04T10:33:12.842Z,6.40
2019-02-04T10:35:41.752Z,6.30
2019-02-04T10:38:10.763Z,6.10
2019-02-04T10:40:39.565Z,6.20
2019-02-04T10:43:08.521Z,6.20
2019-02-04T10:45:37.360Z,6.10
2019-02-04T10:48:06.751Z,6.10
2019-02-04T10:50:46.378Z,6.20
2019-02-04T10:53:12.547Z,6.10
2019-02-04T10:55:41.555Z,6.00
2019-02-04T10:58:13.005Z,5.90
2019-02-04T11:00:42.546Z,5.80
2019-02-04T11:03:11.488Z,5.90
2019-02-04T11:05:44.167Z,6.00
2019-02-04T11:08:14.481Z,6.10
2019-02-04T11:10:43.657Z,6.20
2019-02-04T11:13:14.596Z,6.30
2019-02-04T11:15:44.235Z,6.40
2019-02-04T11:18:13.674Z,6.50
2019-02-04T11:20:43.267Z,6.50
2019-02-04T11:23:12.432Z,6.60
2019-02-04T11:25:41.432Z,6.70
2019-02-04T11:28:10.839Z,6.80
2019-02-04T11:30:42.658Z,6.80
2019-02-04T11:33:11.657Z,6.70
2019-02-04T11:35:40.577Z,6.70
2019-02-04T11:38:09.537Z,6.60
2019-02-04T11:40:42.094Z,6.60
2019-02-04T11:43:11.660Z,6.60
2019-02-04T11:45:40.703Z,6.60
2019-02-04T11:48:12.198Z,6.50
2019-02-04T11:50:41.211Z,6.60
2019-02-04T11:53:10.400Z,6.60
2019-02-04T11:55:39.217Z,6.60
2019-02-04T11:58:08.404Z,6.60
2019-02-04T12:00:38.413Z,6.60
2019-02-04T12:03:10.769Z,6.60
2019-02-04T12:05:39.877Z,6.50
2019-02-04T12:08:09.966Z,6.40
2019-02-04T12:10:47.850Z,6.40
2019-02-04T12:13:16.645Z,6.40
2019-02-04T12:15:45.829Z,6.20
2019-02-04T12:18:14.589Z,6.20
2019-02-04T12:20:43.449Z,6.10
2019-02-04T12:23:12.408Z,6.20
2019-02-04T12:25:41.570Z,6.20
2019-02-04T12:28:10.420Z,6.30
2019-02-04T12:30:42.046Z,6.40
2019-02-04T12:33:13.362Z,6.60
2019-02-04T12:35:42.291Z,6.80
2019-02-04T12:38:11.314Z,7.00
2019-02-04T12:40:40.476Z,7.10
2019-02-04T12:43:09.505Z,7.10
2019-02-04T12:45:40.887Z,7.10
2019-02-04T12:48:09.666Z,7.00
2019-02-04T12:50:38.647Z,6.90
2019-02-04T12:53:10.226Z,6.80
2019-02-04T12:55:37.998Z,6.70
2019-02-04T12:58:07.273Z,6.40
2019-02-04T13:00:36.948Z,6.30
2019-02-04T13:03:05.946Z,6.10
2019-02-04T13:05:40.418Z,5.90
2019-02-04T13:08:10.709Z,5.90
2019-02-04T13:10:39.592Z,5.80
2019-02-04T13:13:10.464Z,5.80
2019-02-04T13:15:39.493Z,5.80
2019-02-04T13:18:08.616Z,5.70
2019-02-04T13:20:37.657Z,5.70
2019-02-04T13:23:06.744Z,5.80
2019-02-04T13:25:35.641Z,5.70
2019-02-04T13:28:06.462Z,5.70
2019-02-04T13:30:35.628Z,5.70
2019-02-04T13:33:04.852Z,5.70
2019-02-04T13:35:34.368Z,5.50
2019-02-04T13:38:03.345Z,5.50
2019-02-04T13:40:33.002Z,5.40
2019-02-04T13:43:01.931Z,5.40
2019-02-04T13:45:31.178Z,5.40
2019-02-04T13:48:00.321Z,5.40
2019-02-04T13:50:29.916Z,5.30
2019-02-04T13:52:58.758Z,5.00
2019-02-04T13:55:35.685Z,5.00
2019-02-04T13:58:05.557Z,5.00
2019-02-04T14:00:35.284Z,4.80
2019-02-04T14:03:05.715Z,4.80
2019-02-04T14:05:34.547Z,4.70
2019-02-04T14:08:03.311Z,4.60
2019-02-04T14:10:37.452Z,4.60
2019-02-04T14:13:06.862Z,4.50
2019-02-04T14:15:36.748Z,4.50
2019-02-04T14:18:06.699Z,4.40
2019-02-04T14:20:35.459Z,4.40
2019-02-04T14:23:04.279Z,4.30
2019-02-04T14:25:33.320Z,4.20
2019-02-04T14:28:03.621Z,4.20
2019-02-04T14:30:35.384Z,4.10
2019-02-04T14:33:04.754Z,4.00
2019-02-04T14:35:33.652Z,3.90
2019-02-04T14:38:02.958Z,3.90
2019-02-04T14:40:31.819Z,3.70
2019-02-04T14:43:04.001Z,3.60
2019-02-04T14:45:35.876Z,3.60
2019-02-04T14:48:19.823Z,3.60
2019-02-04T14:51:00.683Z,3.50
2019-02-04T14:53:44.305Z,3.50
2019-02-04T14:56:32.695Z,3.40
2019-02-04T14:59:04.803Z,3.40
2019-02-04T15:01:36.643Z,3.30
2019-02-04T15:04:26.337Z,3.20
2019-02-04T15:07:00.899Z,3.20
2019-02-04T15:09:32.656Z,3.10
2019-02-04T15:12:26.596Z,3.10
2019-02-04T15:15:24.359Z,3.00
2019-02-04T15:18:02.053Z,2.90
2019-02-04T15:20:39.851Z,2.80
2019-02-04T15:23:11.728Z,2.70
2019-02-04T15:25:51.815Z,2.60
2019-02-04T15:28:38.665Z,2.50
2019-02-04T15:31:25.367Z,2.50
2019-02-04T15:34:13.470Z,2.40
2019-02-04T15:36:54.316Z,2.40
2019-02-04T15:39:32.132Z,2.30
2019-02-04T15:42:15.989Z,2.10
2019-02-04T15:45:00.343Z,2.00
2019-02-04T15:47:37.905Z,1.90
2019-02-04T15:50:18.689Z,1.80
2019-02-04T15:52:47.836Z,1.80
2019-02-04T15:55:17.463Z,1.70
2019-02-04T15:57:46.517Z,1.70
2019-02-04T16:00:16.270Z,1.60
2019-02-04T16:02:45.516Z,1.50
2019-02-04T16:05:14.521Z,1.40
2019-02-04T16:07:43.432Z,1.30
2019-02-04T16:10:15.148Z,1.20
2019-02-04T16:12:44.067Z,1.10
2019-02-04T16:15:14.857Z,1.00
2019-02-04T16:17:43.695Z,0.90
2019-02-04T16:20:15.854Z,0.90
2019-02-04T16:22:57.365Z,0.90
2019-02-04T16:25:15.911Z,0.90
2019-02-04T16:27:44.761Z,0.90
2019-02-04T16:30:21.603Z,0.90
2019-02-04T16:32:52.767Z,0.80
2019-02-04T16:35:21.117Z,0.80
2019-02-04T16:37:50.264Z,0.80
2019-02-04T16:40:21.824Z,0.70
2019-02-04T16:42:50.942Z,0.70
2019-02-04T16:45:24.283Z,0.60
2019-02-04T16:47:53.657Z,0.40
2019-02-04T16:50:25.220Z,0.20
2019-02-04T16:52:54.288Z,0.10
2019-02-04T16:55:23.191Z,0.00
2019-02-04T16:57:54.436Z,-0.20
2019-02-04T17:00:25.448Z,-0.30
2019-02-04T17:02:54.407Z,-0.40
2019-02-04T17:05:24.862Z,-0.50
2019-02-04T17:07:53.810Z,-0.60
2019-02-04T17:10:24.775Z,-0.70
2019-02-04T17:12:53.660Z,-0.80
2019-02-04T17:15:25.504Z,-0.90
2019-02-04T17:17:53.352Z,-1.00
2019-02-04T17:20:30.738Z,-1.00
2019-02-04T17:22:59.694Z,-1.10
2019-02-04T17:25:28.525Z,-1.20
2019-02-04T17:27:57.453Z,-1.30
2019-02-04T17:30:27.236Z,-1.30
2019-02-04T17:32:56.066Z,-1.30
2019-02-04T17:35:24.943Z,-1.40
2019-02-04T17:37:53.804Z,-1.40
2019-02-04T17:40:24.627Z,-1.40
2019-02-04T17:42:54.779Z,-1.40
2019-02-04T17:45:23.750Z,-1.40
2019-02-04T17:47:53.856Z,-1.40
2019-02-04T17:50:23.743Z,-1.50
2019-02-04T17:52:52.553Z,-1.60
2019-02-04T17:55:29.037Z,-1.80
2019-02-04T17:57:57.889Z,-1.80
2019-02-04T18:00:31.739Z,-1.90
2019-02-04T18:03:00.578Z,-2.00
2019-02-04T18:05:29.384Z,-2.00
2019-02-04T18:07:58.174Z,-2.00
2019-02-04T18:10:26.988Z,-2.10
2019-02-04T18:12:55.981Z,-2.20
2019-02-04T18:15:25.433Z,-2.20
2019-02-04T18:17:54.292Z,-2.30
2019-02-04T18:20:23.259Z,-2.30
2019-02-04T18:22:52.140Z,-2.20
2019-02-04T18:25:22.448Z,-2.20
2019-02-04T18:27:51.320Z,-2.00
2019-02-04T18:30:22.969Z,-1.90
2019-02-04T18:32:52.285Z,-1.80
2019-02-04T18:35:21.217Z,-1.80
2019-02-04T18:37:50.031Z,-1.70
2019-02-04T18:40:26.240Z,-1.70
2019-02-04T18:42:55.573Z,-1.70
2019-02-04T18:45:29.517Z,-1.70
2019-02-04T18:47:58.404Z,-1.80
2019-02-04T18:50:28.068Z,-1.80
2019-02-04T18:52:56.886Z,-1.80
2019-02-04T18:55:31.020Z,-1.80
2019-02-04T18:57:59.922Z,-1.80
2019-02-04T19:00:30.708Z,-1.90
2019-02-04T19:03:00.967Z,-2.00
2019-02-04T19:05:29.856Z,-2.00
2019-02-04T19:07:58.736Z,-2.10
2019-02-04T19:10:27.762Z,-2.10
2019-02-04T19:12:56.705Z,-2.20
2019-02-04T19:15:29.468Z,-2.20
2019-02-04T19:18:05.116Z,-2.20
2019-02-04T19:20:34.016Z,-2.20
2019-02-04T19:23:02.891Z,-2.20
2019-02-04T19:25:31.858Z,-2.20
2019-02-04T19:28:00.588Z,-2.10
2019-02-04T19:30:35.332Z,-2.00
2019-02-04T19:33:04.696Z,-2.00
2019-02-04T19:35:33.633Z,-2.10
2019-02-04T19:38:02.613Z,-2.20
2019-02-04T19:40:31.500Z,-2.20
2019-02-04T19:43:00.360Z,-2.20
2019-02-04T19:45:29.657Z,-2.30
2019-02-04T19:47:58.462Z,-2.30
2019-02-04T19:50:37.652Z,-2.30
2019-02-04T19:53:07.130Z,-2.30
2019-02-04T19:55:35.982Z,-2.20
2019-02-04T19:58:05.797Z,-2.30
2019-02-04T20:00:34.536Z,-2.40
2019-02-04T20:03:03.346Z,-2.50
2019-02-04T20:05:33.135Z,-2.50
2019-02-04T20:08:02.042Z,-2.40
2019-02-04T20:10:33.660Z,-2.40
2019-02-04T20:13:03.708Z,-2.50
2019-02-04T20:15:33.439Z,-2.50
2019-02-04T20:18:02.297Z,-2.50
2019-02-04T20:20:31.364Z,-2.50
2019-02-04T20:23:00.574Z,-2.50
2019-02-04T20:25:33.722Z,-2.60
2019-02-04T20:28:04.105Z,-2.50
2019-02-04T20:30:45.188Z,-2.50
2019-02-04T20:33:06.396Z,-2.60
2019-02-04T20:35:35.260Z,-2.60
2019-02-04T20:38:04.124Z,-2.60
2019-02-04T20:40:33.087Z,-2.60
2019-02-04T20:43:02.473Z,-2.60
2019-02-04T20:45:31.473Z,-2.60
2019-02-04T20:48:00.357Z,-2.60
2019-02-04T20:50:40.899Z,-2.70
2019-02-04T20:53:10.300Z,-2.70
2019-02-04T20:55:39.654Z,-2.70
2019-02-04T20:58:08.540Z,-2.70
2019-02-04T21:00:37.437Z,-2.80
2019-02-04T21:03:06.270Z,-2.80
2019-02-04T21:05:35.175Z,-2.90
2019-02-04T21:08:04.956Z,-2.90
2019-02-04T21:10:33.733Z,-2.90
2019-02-04T21:13:02.696Z,-2.90
2019-02-04T21:15:31.487Z,-2.90
2019-02-04T21:18:00.272Z,-3.00
2019-02-04T21:20:31.705Z,-3.00
2019-02-04T21:23:00.602Z,-3.00
2019-02-04T21:25:29.474Z,-3.00
2019-02-04T21:27:58.326Z,-2.90
2019-02-04T21:30:35.086Z,-2.90
2019-02-04T21:33:03.948Z,-3.00
2019-02-04T21:35:32.828Z,-3.00
2019-02-04T21:38:01.866Z,-3.10
2019-02-04T21:40:31.125Z,-3.10
2019-02-04T21:42:59.994Z,-3.10
2019-02-04T21:45:28.799Z,-3.10
2019-02-04T21:47:57.773Z,-3.10
2019-02-04T21:50:29.898Z,-3.10
2019-02-04T21:52:59.233Z,-3.10
2019-02-04T21:55:28.534Z,-3.20
2019-02-04T21:57:57.391Z,-3.20
2019-02-04T22:00:34.899Z,-3.10
2019-02-04T22:03:03.846Z,-3.10
2019-02-04T22:05:34.634Z,-3.20
2019-02-04T22:08:03.941Z,-3.20
2019-02-04T22:10:32.694Z,-3.20
2019-02-04T22:13:01.667Z,-3.10
2019-02-04T22:15:30.560Z,-3.10
2019-02-04T22:17:59.582Z,-3.10
2019-02-04T22:20:28.450Z,-3.20
2019-02-04T22:22:57.257Z,-3.20
2019-02-04T22:25:26.827Z,-3.20
2019-02-04T22:27:55.696Z,-3.20
2019-02-04T22:30:26.543Z,-3.20
2019-02-04T22:32:55.311Z,-3.10
2019-02-04T22:35:24.090Z,-3.10
2019-02-04T22:37:53.004Z,-3.10
2019-02-04T22:40:24.482Z,-3.10
2019-02-04T22:42:53.207Z,-3.10
2019-02-04T22:45:22.448Z,-3.20
2019-02-04T22:47:51.375Z,-3.10
2019-02-04T22:50:28.357Z,-3.20
2019-02-04T22:52:57.673Z,-3.30
2019-02-04T22:55:32.005Z,-3.20
2019-02-04T22:57:57.612Z,-3.20
2019-02-04T23:00:31.046Z,-3.20
2019-02-04T23:02:59.953Z,-3.20
2019-02-04T23:05:29.031Z,-3.30
2019-02-04T23:07:57.997Z,-3.40
2019-02-04T23:10:26.873Z,-3.30
2019-02-04T23:12:55.869Z,-3.30
2019-02-04T23:15:24.615Z,-3.20
2019-02-04T23:17:53.454Z,-3.30
2019-02-04T23:20:22.378Z,-3.30
2019-02-04T23:22:51.325Z,-3.30
2019-02-04T23:25:20.111Z,-3.40
2019-02-04T23:27:48.996Z,-3.40
2019-02-04T23:30:19.862Z,-3.40
2019-02-04T23:32:48.661Z,-3.40
2019-02-04T23:35:17.484Z,-3.30
2019-02-04T23:37:46.312Z,-3.40
2019-02-04T23:40:17.038Z,-3.30
2019-02-04T23:42:46.236Z,-3.30
2019-02-04T23:45:15.295Z,-3.20
2019-02-04T23:47:44.069Z,-3.20
2019-02-04T23:50:17.309Z,-3.40
2019-02-04T23:52:46.112Z,-3.40
2019-02-04T23:55:15.365Z,-3.50
2019-02-04T23:57:44.209Z,-3.50
